Gandhi — A8OK8 — position and weather

sailwx.info

Track history (hours):
 
Tides and Currents Weather Stations Pressure Air Temp Water Temp Dewpoint Dewpoint Depression Visibility Wind Speed Wind Dir Waves Ship Positions

Gandhi

Last reported at 2014-Aug-17 18:14 UTC. Time now 2014-Aug-31 06:35 UTC.
Position N 40°46' E 028°59'.
Warning: this ship's position is 13 days out of date.

Length 180 m; draft 6.2 m.

Type: Ship. MMSI: 636013645.

Date/timePositionNaut miles runAvg speedWind from/ knotsBaromVisibWave heightAir tempDewpointWater temp
2014-Aug-17 18:14N 40°46' E 028°59'1 1.0
2014-Aug-17 17:32N 40°46' E 028°58'1 1.1
2014-Aug-17 16:32N 40°47' E 028°59'3 2.7
2014-Aug-17 15:33N 40°45' E 028°60'1 1.2
2014-Aug-17 14:23N 40°44' E 028°59'1 1.1
2014-Aug-17 13:29N 40°45' E 028°59'1 0.9
2014-Aug-17 12:11N 40°45' E 028°58'2 0.5
2014-Aug-17 08:29N 40°46' E 028°56'0 0.1
2014-Aug-17 06:29N 40°46' E 028°56'1 0.3
2014-Aug-17 03:29N 40°47' E 028°57'1 0.5
2014-Aug-17 01:17N 40°47' E 028°58'1 0.5
2014-Aug-16 22:29N 40°48' E 028°60'1 0.7
2014-Aug-16 21:29N 40°48' E 029°01'1 1.2
2014-Aug-16 20:20N 40°47' E 029°02'8 9.9
2014-Aug-16 19:33N 40°46' E 029°12'54 1.2
2014-Aug-14 22:32N 40°44' E 028°01'1413.4
2014-Aug-14 21:31N 40°43' E 027°43'1313.4
2014-Aug-14 20:32N 40°39' E 027°26'10411.6
2014-Aug-14 11:30N 39°28' E 025°46'1313.3
2014-Aug-14 10:33N 39°16' E 025°46'1212.1
2014-Aug-14 09:33N 39°04' E 025°50'  
2014-Aug-08 08:17N 37°50' E 025°50'2313.0
2014-Aug-08 06:33N 37°28' E 025°54'1212.4
2014-Aug-08 05:33N 37°17' E 026°02'1313.1
2014-Aug-08 04:33N 37°05' E 026°08'1812.5
2014-Aug-08 03:04N 36°50' E 026°22'  
Track history (hours):
 
Tides and Currents Weather Stations Pressure Air Temp Water Temp Dewpoint Dewpoint Depression Visibility Wind Speed Wind Dir Waves Ship Positions

Gandhi

Last reported at 2014-Aug-17 18:14 UTC. Time now 2014-Aug-31 06:35 UTC.
Position N 40°46' E 028°59'.
Warning: this ship's position is 13 days out of date.

Length 180 m; draft 6.2 m.

Type: Ship. MMSI: 636013645.

Date/timePositionNaut miles runAvg speedWind from/ knotsBaromVisibWave heightAir tempDewpointWater temp
2014-Aug-17 18:14N 40°46' E 028°59'1 1.0
2014-Aug-17 17:32N 40°46' E 028°58'1 1.1
2014-Aug-17 16:32N 40°47' E 028°59'3 2.7
2014-Aug-17 15:33N 40°45' E 028°60'1 1.2
2014-Aug-17 14:23N 40°44' E 028°59'1 1.1
2014-Aug-17 13:29N 40°45' E 028°59'1 0.9
2014-Aug-17 12:11N 40°45' E 028°58'2 0.5
2014-Aug-17 08:29N 40°46' E 028°56'0 0.1
2014-Aug-17 06:29N 40°46' E 028°56'1 0.3
2014-Aug-17 03:29N 40°47' E 028°57'1 0.5
2014-Aug-17 01:17N 40°47' E 028°58'1 0.5
2014-Aug-16 22:29N 40°48' E 028°60'1 0.7
2014-Aug-16 21:29N 40°48' E 029°01'1 1.2
2014-Aug-16 20:20N 40°47' E 029°02'8 9.9
2014-Aug-16 19:33N 40°46' E 029°12'54 1.2
2014-Aug-14 22:32N 40°44' E 028°01'1413.4
2014-Aug-14 21:31N 40°43' E 027°43'1313.4
2014-Aug-14 20:32N 40°39' E 027°26'10411.6
2014-Aug-14 11:30N 39°28' E 025°46'1313.3
2014-Aug-14 10:33N 39°16' E 025°46'1212.1
2014-Aug-14 09:33N 39°04' E 025°50'  
2014-Aug-08 08:17N 37°50' E 025°50'2313.0
2014-Aug-08 06:33N 37°28' E 025°54'1212.4
2014-Aug-08 05:33N 37°17' E 026°02'1313.1
2014-Aug-08 04:33N 37°05' E 026°08'1812.5
2014-Aug-08 03:04N 36°50' E 026°22'  

Dump ship's entire track history